Thunder radar more information blitzortung!


Radar de pluja more information rain snow radar


Visita la nostra xarxa de llocs de meteo:

Template documentation
and downloads

And another site



No particular awareness of the weather is required.    There are no Weather-warnings

Pagina Historial Weather Underground text

Diari Resum January 10, 2016 Unitats:  Mètric    Imperial   Tant
« Previous Dia
SegĂźent Dia »
Diari Setmana Mensual Anual Personalitzada
  Maxima: Minima: Media:
Temperatura: -17.8 °C -10.3 °C -9.7 °C
Punt de rosada: -17.8 °C -14.3 °C -13.9 °C
Humitat: Humidity % 49 % 60 %
Wind Speed: 0 km/h 6.8 km/h 19 km/h
RĂ fegues de vent: 0 km/h - -
Vent:- - WSW
Pression baro: 0 hPa 34029.3 hPa -
Precipitacions: 0 mm    
Historical Graphs
 
 
Dades de taula per January 10, 2016
Temps Temperatura Punt de rosada Pression baro Vent Wind Speed RĂ fegues de vent Humitat Rainfall Rate (Hourly)
-17.8 °C -17.8 °C 0 hPa Calm     Humidity % 0 mm
15:31 -8.1 °C -14.1 °C 34063.2 hPa SW 37 km/h 37 km/h 49 % 0 mm
15:36 -8.3 °C -14.3 °C 34063.2 hPa West 38.8 km/h 38.8 km/h 49 % 0 mm
15:41 -8.2 °C -14.2 °C 34063.2 hPa SSW 20.9 km/h 20.9 km/h 49 % 0 mm
15:46 -8.2 °C -14.2 °C 34063.2 hPa West 26.9 km/h 26.9 km/h 49 % 0 mm
15:51 -8.2 °C -14.2 °C 34063.2 hPa SW 35.7 km/h 35.7 km/h 49 % 0 mm
15:56 -8.2 °C -14.2 °C 34063.2 hPa WSW 35.7 km/h 35.7 km/h 49 % 0 mm
16:01 -8.3 °C -14.1 °C 34063.2 hPa WSW 29.8 km/h 29.8 km/h 50 % 0 mm
16:06 -8.3 °C -14.2 °C 34063.2 hPa SW 42.2 km/h 42.2 km/h 50 % 0 mm
16:11 -8.4 °C -14.1 °C 34029.3 hPa West 29.8 km/h 29.8 km/h 51 % 0 mm
16:16 -8.4 °C -14.1 °C 34029.3 hPa SW 44.7 km/h 44.7 km/h 51 % 0 mm
16:21 -8.4 °C -14.1 °C 34029.3 hPa SW 32.8 km/h 32.8 km/h 51 % 0 mm
16:26 -8.5 °C -14 °C 34063.2 hPa WSW 32.8 km/h 32.8 km/h 52 % 0 mm
16:31 -8.6 °C -14.1 °C 34063.2 hPa SW 26.9 km/h 26.9 km/h 52 % 0 mm
16:36 -8.6 °C -14.1 °C 34063.2 hPa SW 26.9 km/h 26.9 km/h 52 % 0 mm
16:41 -8.7 °C -14.1 °C 34063.2 hPa SW 32.8 km/h 32.8 km/h 53 % 0 mm
16:46 -8.8 °C -14.2 °C 34063.2 hPa SW 20.9 km/h 20.9 km/h 53 % 0 mm
16:51 -8.9 °C -14.1 °C 34063.2 hPa West 23.8 km/h 23.8 km/h 54 % 0 mm
16:56 -8.9 °C -13.9 °C 34063.2 hPa WSW 15 km/h 15 km/h 55 % 0 mm
17:01 -9 °C -14 °C 34063.2 hPa WSW 26.9 km/h 26.9 km/h 55 % 0 mm
17:06 -9 °C -13.8 °C 34063.2 hPa SSW 23.8 km/h 23.8 km/h 56 % 0 mm
17:11 -9.1 °C -14 °C 34063.2 hPa South 23.8 km/h 23.8 km/h 56 % 0 mm
17:16 -9.2 °C -13.9 °C 34063.2 hPa WSW 20.9 km/h 22.5 km/h 57 % 0 mm
17:21 -9.2 °C -13.9 °C 34063.2 hPa WSW 23.3 km/h 23.3 km/h 57 % 0 mm
17:26 -9.3 °C -14 °C 34097 hPa West 16.1 km/h 16.1 km/h 57 % 0 mm
17:31 -9.3 °C -13.8 °C 34097 hPa SW 26.9 km/h 26.9 km/h 58 % 0 mm
17:36 -9.4 °C -13.9 °C 34097 hPa SSW 18.3 km/h 18.3 km/h 58 % 0 mm
17:41 -9.4 °C -13.8 °C 34063.2 hPa WSW 15 km/h 15 km/h 59 % 0 mm
17:46 -9.5 °C -13.8 °C 34063.2 hPa West 17.9 km/h 17.9 km/h 60 % 0 mm
17:51 -9.5 °C -13.8 °C 34063.2 hPa SW 17.9 km/h 17.9 km/h 60 % 0 mm
17:56 -9.6 °C -13.9 °C 34063.2 hPa SSW 14.5 km/h 14.5 km/h 60 % 0 mm
18:01 -9.7 °C -13.8 °C 34063.2 hPa SW 20.3 km/h 20.3 km/h 61 % 0 mm
18:06 -9.7 °C -13.8 °C 34063.2 hPa WSW 15 km/h 15 km/h 61 % 0 mm
18:11 -9.8 °C -13.8 °C 34063.2 hPa WSW 17.9 km/h 17.9 km/h 62 % 0 mm
18:16 -9.8 °C -13.8 °C 34063.2 hPa SSW 20.9 km/h 20.9 km/h 62 % 0 mm
18:22 -9.8 °C -13.7 °C 34063.2 hPa SW 20.9 km/h 20.9 km/h 63 % 0 mm
18:27 -9.9 °C -13.7 °C 34063.2 hPa SW 20.9 km/h 20.9 km/h 63 % 0 mm
18:32 -9.9 °C -13.8 °C 34063.2 hPa SSW 19.2 km/h 19.2 km/h 63 % 0 mm
18:37 -9.9 °C -13.8 °C 34063.2 hPa SW 12.7 km/h 16.1 km/h 63 % 0 mm
18:42 -9.9 °C -13.7 °C 34097 hPa SW 27.2 km/h 27.2 km/h 64 % 0 mm
18:47 -9.9 °C -13.7 °C 34097 hPa SW 20.9 km/h 20.9 km/h 64 % 0 mm
18:52 -9.9 °C -13.7 °C 34097 hPa WSW 16.1 km/h 16.1 km/h 64 % 0 mm
18:57 -10 °C -13.7 °C 34097 hPa SW 26.4 km/h 26.4 km/h 64 % 0 mm
19:02 -9.9 °C -13.7 °C 34097 hPa WSW 26.9 km/h 26.9 km/h 64 % 0 mm
19:07 -10 °C -13.7 °C 34097 hPa West 23.8 km/h 23.8 km/h 64 % 0 mm
19:12 -10.1 °C -13.8 °C 34097 hPa WSW 18.3 km/h 18.3 km/h 64 % 0 mm
19:17 -10.1 °C -13.8 °C 34097 hPa West 11.9 km/h 11.9 km/h 64 % 0 mm
19:22 -10.1 °C -13.8 °C 34097 hPa WSW 19.2 km/h 19.2 km/h 64 % 0 mm
19:27 -10.1 °C -13.8 °C 34097 hPa WSW 15.3 km/h 15.3 km/h 64 % 0 mm
19:32 -10.1 °C -13.7 °C 34097 hPa SW 17.9 km/h 17.9 km/h 65 % 0 mm
19:37 -10.2 °C -13.9 °C 34097 hPa WSW 14 km/h 14 km/h 64 % 0 mm
19:42 -10.2 °C -13.9 °C 34097 hPa SSW 15.3 km/h 15.3 km/h 64 % 0 mm
19:47 -10.2 °C -13.8 °C 34097 hPa WSW 16.1 km/h 16.1 km/h 65 % 0 mm
19:52 -10.3 °C -13.8 °C 34097 hPa SW 15 km/h 15 km/h 65 % 0 mm
19:57 -10.3 °C -13.8 °C 34097 hPa SW 15 km/h 15 km/h 65 % 0 mm
20:02 -10.3 °C -13.8 °C 34097 hPa SW 15 km/h 15 km/h 65 % 0 mm
20:07 -10.3 °C -13.9 °C 34097 hPa SW 15 km/h 15 km/h 65 % 0 mm
20:12 -10.3 °C -13.8 °C 34097 hPa West 11.9 km/h 15.3 km/h 66 % 0 mm
20:17 -10.3 °C -13.8 °C 34097 hPa SSW 9 km/h 9.8 km/h 66 % 0 mm
20:22 -10.3 °C -13.6 °C 34097 hPa West 15 km/h 15 km/h 67 % 0 mm
20:27 -10.3 °C -13.7 °C 34063.2 hPa WSW 11.9 km/h 14.5 km/h 67 % 0 mm
20:32 -10.3 °C -13.7 °C 34063.2 hPa WSW 11.9 km/h 14.5 km/h 67 % 0 mm
20:37 -10.3 °C -13.6 °C 34063.2 hPa SW 11.9 km/h 11.9 km/h 67 % 0 mm
20:42 -10.3 °C -13.6 °C 34063.2 hPa SW 11.9 km/h 11.9 km/h 67 % 0 mm
20:47 -10.2 °C -13.6 °C 34063.2 hPa SW 11.9 km/h 11.9 km/h 67 % 0 mm
20:52 -10.2 °C -13.6 °C 34063.2 hPa WSW 11.9 km/h 11.9 km/h 67 % 0 mm
20:57 -10.2 °C -13.7 °C 34063.2 hPa WSW 11.9 km/h 11.9 km/h 66 % 0 mm
21:02 -10.2 °C -13.7 °C 34063.2 hPa WSW 11.9 km/h 11.9 km/h 66 % 0 mm
21:07 -10.1 °C -13.6 °C 34063.2 hPa WSW 11.9 km/h 11.9 km/h 66 % 0 mm
21:12 -10.1 °C -13.5 °C 34063.2 hPa WSW 19.2 km/h 19.2 km/h 66 % 0 mm
21:17 -10.1 °C -13.7 °C 34063.2 hPa West 17.9 km/h 17.9 km/h 65 % 0 mm
21:22 -10.1 °C -13.7 °C 34063.2 hPa West 6.8 km/h 9.8 km/h 65 % 0 mm
21:27 -10.1 °C -13.7 °C 34063.2 hPa West 6.8 km/h 9.8 km/h 65 % 0 mm
21:32 -10.1 °C -13.7 °C 34063.2 hPa West 6.8 km/h 9.8 km/h 65 % 0 mm
21:37 -10.2 °C -13.8 °C 34063.2 hPa West 6.8 km/h 9.8 km/h 65 % 0 mm
21:42 -10.2 °C -13.8 °C 34063.2 hPa SW 15 km/h 15 km/h 65 % 0 mm
21:47 -10.2 °C -13.8 °C 34063.2 hPa WSW 9 km/h 10.3 km/h 65 % 0 mm
21:52 -10.3 °C -13.9 °C 34063.2 hPa West 9.8 km/h 11.1 km/h 65 % 0 mm
21:57 -10.3 °C -13.8 °C 34063.2 hPa West 9.8 km/h 11.1 km/h 65 % 0 mm
22:02 -10.3 °C -13.9 °C 34063.2 hPa West 9.8 km/h 11.1 km/h 65 % 0 mm
22:07 -10.3 °C -13.8 °C 34063.2 hPa West 9.8 km/h 11.1 km/h 65 % 0 mm
22:12 -10.2 °C -13.8 °C 34063.2 hPa SW 9 km/h 12.2 km/h 65 % 0 mm
22:17 -10.2 °C -13.8 °C 34063.2 hPa SW 23.8 km/h 23.8 km/h 65 % 0 mm
22:22 -10.2 °C -13.8 °C 34063.2 hPa SW 15 km/h 19.2 km/h 65 % 0 mm
22:27 -10.1 °C -13.8 °C 34063.2 hPa SW 12.7 km/h 19.2 km/h 64 % 0 mm
22:32 -10 °C -13.7 °C 34063.2 hPa SSW 23.8 km/h 23.8 km/h 64 % 0 mm
22:37 -10 °C -13.8 °C 34063.2 hPa WSW 17.9 km/h 17.9 km/h 63 % 0 mm
22:47 -9.9 °C -13.8 °C 34063.2 hPa WSW 16.1 km/h 16.1 km/h 63 % 0 mm
22:52 -9.9 °C -13.9 °C 34063.2 hPa WSW 15 km/h 15 km/h 62 % 0 mm
22:57 -9.9 °C -13.9 °C 34063.2 hPa WSW 16.1 km/h 16.1 km/h 62 % 0 mm
23:02 -9.9 °C -13.9 °C 34063.2 hPa WSW 9.8 km/h 11.1 km/h 62 % 0 mm
23:07 -9.8 °C -13.9 °C 34063.2 hPa SSW 29.8 km/h 29.8 km/h 61 % 0 mm
23:12 -9.8 °C -13.9 °C 34063.2 hPa SW 20.9 km/h 20.9 km/h 61 % 0 mm
23:17 -9.7 °C -13.8 °C 34063.2 hPa SW 20.9 km/h 20.9 km/h 61 % 0 mm
23:22 -9.7 °C -13.9 °C 34063.2 hPa SW 20.9 km/h 20.9 km/h 60 % 0 mm
23:27 -9.6 °C -13.9 °C 34029.3 hPa SW 20.9 km/h 20.9 km/h 60 % 0 mm
23:32 -9.6 °C -13.8 °C 34029.3 hPa SSW 17.9 km/h 17.9 km/h 60 % 0 mm
Meteo Sesrovires
Elogis d' Weather Underground - 3 mb

Guio original per  Jim McMurry - jmcmurry@mwt.net Adaptat per a la plantilla per  Wim van der Kuil - Leuven-Template.eu

Trobareu la nostra informacio del temps tambe a:

Weather Underground

AWEKAS